Time;durP1;ratioP1;P1;durP2;ratioP2;P2;SDS_P1;SDS_P2;PMS_P1;PMS_P2;Temp;Humidity;BMP_temperature;BMP_pressure;BME280_temperature;BME280_humidity;BME280_pressure;Samples;Min_cycle;Max_cycle;Signal;HPM_P1;HPM_P2
2023/12/05 00:00:19;;;;;;;11.85;8.48;;;9.40;99.90;;;;;;5207471;28;20017;-71
2023/12/05 00:02:50;;;;;;;9.75;7.57;;;9.40;99.90;;;;;;5208785;28;20038;-81
2023/12/05 00:05:21;;;;;;;11.70;7.95;;;9.40;99.90;;;;;;5208600;28;20025;-81
2023/12/05 00:07:52;;;;;;;12.98;8.10;;;9.40;99.90;;;;;;5208507;28;20029;-74
2023/12/05 00:10:23;;;;;;;11.35;8.45;;;9.40;99.90;;;;;;5208514;28;20048;-73
2023/12/05 00:12:54;;;;;;;11.50;7.70;;;9.50;99.90;;;;;;5207844;28;20082;-73
2023/12/05 00:15:24;;;;;;;11.95;7.47;;;9.40;99.90;;;;;;5207937;28;20033;-72
2023/12/05 00:17:55;;;;;;;9.93;7.05;;;9.40;99.90;;;;;;5205963;28;20105;-72
2023/12/05 00:20:26;;;;;;;10.77;9.13;;;9.50;99.90;;;;;;5207102;28;20104;-72
2023/12/05 00:22:57;;;;;;;11.10;8.25;;;9.50;99.90;;;;;;5208134;28;20473;-72
2023/12/05 00:25:28;;;;;;;10.48;8.65;;;9.40;99.90;;;;;;5207094;28;20029;-81
2023/12/05 00:27:59;;;;;;;11.52;10.00;;;9.40;99.90;;;;;;5207176;28;20037;-78
2023/12/05 00:30:30;;;;;;;12.05;10.98;;;9.40;99.90;;;;;;5206832;28;20032;-81
2023/12/05 00:33:00;;;;;;;12.32;11.00;;;9.40;99.90;;;;;;5207137;28;20086;-72
2023/12/05 00:35:31;;;;;;;13.93;11.82;;;9.50;99.90;;;;;;5206850;28;20030;-77
2023/12/05 00:38:02;;;;;;;17.58;12.45;;;9.40;99.90;;;;;;5208145;28;20032;-73
2023/12/05 00:40:33;;;;;;;12.52;10.48;;;9.50;99.90;;;;;;5208247;28;20037;-72
2023/12/05 00:43:04;;;;;;;11.55;9.75;;;9.50;99.90;;;;;;5208010;28;20026;-72
2023/12/05 00:45:35;;;;;;;13.27;9.75;;;9.50;99.90;;;;;;5207955;28;20037;-73
2023/12/05 00:48:06;;;;;;;12.65;9.75;;;9.50;99.90;;;;;;5207930;28;20060;-72
2023/12/05 00:50:38;;;;;;;11.63;9.00;;;9.50;99.90;;;;;;5207561;28;20131;-72
2023/12/05 00:53:09;;;;;;;11.18;9.85;;;9.60;99.90;;;;;;5207878;28;20029;-78
2023/12/05 00:55:40;;;;;;;14.25;10.68;;;9.50;99.90;;;;;;5207756;28;20370;-72
2023/12/05 00:58:11;;;;;;;10.45;9.32;;;9.50;99.90;;;;;;5207726;28;20420;-81
2023/12/05 01:00:42;;;;;;;11.73;9.70;;;9.60;99.90;;;;;;5207606;28;20091;-72
2023/12/05 01:03:13;;;;;;;12.10;9.77;;;9.50;99.90;;;;;;5207608;28;20025;-75
2023/12/05 01:05:44;;;;;;;14.27;10.63;;;9.40;99.90;;;;;;5207517;28;20037;-72
2023/12/05 01:08:15;;;;;;;13.80;9.88;;;9.50;99.90;;;;;;5206317;28;20021;-71
2023/12/05 01:10:46;;;;;;;12.57;11.27;;;9.50;99.90;;;;;;5207124;28;20032;-72
2023/12/05 01:13:17;;;;;;;11.65;9.63;;;9.40;99.90;;;;;;5206087;28;20020;-75
2023/12/05 01:15:48;;;;;;;11.88;10.70;;;9.40;99.90;;;;;;5206019;28;20520;-73
2023/12/05 01:18:19;;;;;;;12.07;10.70;;;9.40;99.90;;;;;;5206250;28;20021;-72
2023/12/05 01:20:50;;;;;;;13.85;10.75;;;9.50;99.90;;;;;;5205853;28;20030;-72
2023/12/05 01:23:20;;;;;;;13.57;11.82;;;9.50;99.90;;;;;;5205861;28;20030;-76
2023/12/05 01:25:52;;;;;;;15.38;10.10;;;9.60;99.90;;;;;;5204793;28;20041;-72
2023/12/05 01:28:23;;;;;;;13.63;9.65;;;9.50;99.90;;;;;;5206805;28;20059;-71
2023/12/05 01:30:53;;;;;;;16.80;10.40;;;9.60;99.90;;;;;;5206964;28;20025;-72
2023/12/05 01:33:24;;;;;;;15.65;10.68;;;9.60;99.90;;;;;;5207013;28;20051;-72
2023/12/05 01:35:55;;;;;;;18.08;11.43;;;9.50;99.90;;;;;;5207057;28;20380;-81
2023/12/05 01:38:26;;;;;;;14.48;11.90;;;9.60;99.90;;;;;;5206816;28;20109;-71
2023/12/05 01:40:57;;;;;;;16.55;12.10;;;9.50;99.90;;;;;;5206654;28;20075;-72
2023/12/05 01:43:27;;;;;;;14.32;10.57;;;9.50;99.90;;;;;;5206881;28;20025;-82
2023/12/05 01:45:59;;;;;;;15.00;11.00;;;9.60;99.90;;;;;;5207089;28;20021;-73
2023/12/05 01:48:33;;;;;;;13.07;11.07;;;9.50;99.90;;;;;;5206527;28;20037;-75
2023/12/05 01:51:05;;;;;;;15.18;9.75;;;9.60;99.90;;;;;;5206378;28;20370;-72
2023/12/05 01:53:39;;;;;;;15.05;10.52;;;9.60;99.90;;;;;;5206596;28;20029;-72
2023/12/05 01:56:12;;;;;;;12.88;10.52;;;9.60;99.90;;;;;;5206526;28;20032;-73
2023/12/05 01:58:43;;;;;;;12.32;9.73;;;9.60;99.90;;;;;;5205385;28;20033;-72
2023/12/05 02:01:15;;;;;;;14.15;9.32;;;9.60;99.90;;;;;;5205258;28;20508;-72
2023/12/05 02:03:47;;;;;;;13.88;9.48;;;9.60;99.90;;;;;;5206180;28;20037;-72
2023/12/05 02:06:19;;;;;;;16.10;11.00;;;9.60;99.90;;;;;;5206121;28;20104;-72
2023/12/05 02:08:50;;;;;;;12.30;9.57;;;9.60;99.90;;;;;;5203849;28;20124;-72
2023/12/05 02:11:21;;;;;;;16.10;12.13;;;9.60;99.90;;;;;;5204876;28;20033;-73
2023/12/05 02:13:52;;;;;;;16.45;12.55;;;9.60;99.90;;;;;;5205063;28;20036;-72
2023/12/05 02:16:37;;;;;;;17.83;11.70;;;9.50;99.90;;;;;;5205055;28;20100;-73
2023/12/05 02:19:33;;;;;;;16.58;9.35;;;9.60;99.90;;;;;;5203703;28;20456;-77
2023/12/05 02:22:09;;;;;;;14.93;9.73;;;9.50;99.90;;;;;;5204695;28;20044;-72
2023/12/05 02:25:02;;;;;;;17.48;12.20;;;9.50;99.90;;;;;;5204871;28;20080;-71
2023/12/05 02:27:39;;;;;;;14.30;10.95;;;9.50;99.90;;;;;;5205871;28;20389;-72
2023/12/05 02:30:11;;;;;;;20.92;10.55;;;9.50;99.90;;;;;;5204751;28;20477;-72
2023/12/05 02:32:42;;;;;;;19.25;11.35;;;9.50;99.90;;;;;;5205826;28;20037;-72
2023/12/05 02:35:14;;;;;;;12.82;10.88;;;9.50;99.90;;;;;;5205806;28;20033;-72
2023/12/05 02:38:00;;;;;;;20.02;10.98;;;9.60;99.90;;;;;;5205534;28;20378;-72
2023/12/05 02:40:46;;;;;;;15.80;10.25;;;9.60;99.90;;;;;;5205808;28;20018;-72
2023/12/05 02:43:25;;;;;;;16.55;9.43;;;9.60;99.90;;;;;;5205838;28;20032;-72
2023/12/05 02:45:57;;;;;;;14.45;9.82;;;9.60;99.90;;;;;;5205788;28;20024;-83
2023/12/05 02:48:29;;;;;;;17.30;9.88;;;9.50;99.90;;;;;;5205767;28;20505;-77
2023/12/05 02:51:00;;;;;;;12.38;10.02;;;9.50;99.90;;;;;;5205218;28;20045;-72
2023/12/05 02:53:30;;;;;;;14.00;8.48;;;9.50;99.90;;;;;;5205777;28;20386;-73
2023/12/05 02:56:02;;;;;;;12.10;8.52;;;9.50;99.90;;;;;;5205674;28;20053;-73
2023/12/05 02:58:33;;;;;;;16.00;9.05;;;9.50;99.90;;;;;;5204442;28;20112;-77
2023/12/05 03:01:04;;;;;;;11.32;8.35;;;9.60;99.90;;;;;;5203625;28;20034;-72
2023/12/05 03:03:34;;;;;;;13.93;8.88;;;9.60;99.90;;;;;;5204223;28;20462;-73
2023/12/05 03:06:06;;;;;;;16.35;8.52;;;9.60;99.90;;;;;;5204327;28;20024;-73
2023/12/05 03:08:36;;;;;;;10.90;8.07;;;9.70;99.90;;;;;;5204221;28;20057;-80
2023/12/05 03:11:07;;;;;;;15.07;8.55;;;9.60;99.90;;;;;;5204226;28;20025;-75
2023/12/05 03:13:41;;;;;;;14.50;9.88;;;9.60;99.90;;;;;;5204160;28;20123;-72
2023/12/05 03:16:12;;;;;;;14.55;9.18;;;9.60;99.90;;;;;;5204378;28;20025;-72
2023/12/05 03:18:43;;;;;;;14.10;9.20;;;9.60;99.90;;;;;;5204464;28;20036;-76
2023/12/05 03:21:20;;;;;;;16.23;9.40;;;9.50;99.90;;;;;;5205401;28;20022;-72
2023/12/05 03:23:51;;;;;;;12.23;9.57;;;9.50;99.90;;;;;;5204347;28;20481;-72
2023/12/05 03:26:23;;;;;;;13.13;9.02;;;9.60;99.90;;;;;;5205265;28;20035;-71
2023/12/05 03:28:53;;;;;;;15.07;10.00;;;9.60;99.90;;;;;;5205294;28;20052;-72
2023/12/05 03:31:24;;;;;;;14.32;9.68;;;9.60;99.90;;;;;;5205284;28;20022;-72
2023/12/05 03:33:55;;;;;;;13.50;8.90;;;9.50;99.90;;;;;;5205225;28;20029;-72
2023/12/05 03:36:26;;;;;;;19.42;9.40;;;9.60;99.90;;;;;;5205495;28;20029;-72
2023/12/05 03:38:57;;;;;;;16.85;9.15;;;9.60;99.90;;;;;;5205216;28;20109;-72
2023/12/05 03:41:28;;;;;;;14.02;8.40;;;9.60;99.90;;;;;;5204998;28;20496;-75
2023/12/05 03:43:59;;;;;;;14.00;9.07;;;9.60;99.90;;;;;;5205201;28;20440;-72
2023/12/05 03:46:30;;;;;;;15.35;8.63;;;9.60;99.90;;;;;;5203861;28;20022;-71
2023/12/05 03:49:01;;;;;;;14.10;9.30;;;9.60;99.90;;;;;;5205018;28;20087;-81
2023/12/05 03:51:31;;;;;;;12.35;9.15;;;9.60;99.90;;;;;;5203285;28;20045;-71
2023/12/05 03:54:03;;;;;;;20.33;10.07;;;9.60;99.90;;;;;;5205187;28;20412;-81
2023/12/05 03:56:34;;;;;;;14.85;9.75;;;9.50;99.90;;;;;;5204651;28;20061;-72
2023/12/05 03:59:04;;;;;;;14.00;10.57;;;9.60;99.90;;;;;;5204753;28;20477;-72
2023/12/05 04:01:35;;;;;;;15.88;10.07;;;9.60;99.90;;;;;;5202775;28;20025;-72
2023/12/05 04:04:06;;;;;;;14.70;9.05;;;9.70;99.90;;;;;;5205869;28;20029;-72
2023/12/05 04:06:37;;;;;;;22.88;11.80;;;9.70;99.90;;;;;;5207301;28;20021;-72
2023/12/05 04:09:08;;;;;;;15.77;9.57;;;9.60;99.90;;;;;;5207341;28;20041;-75
2023/12/05 04:11:39;;;;;;;17.50;9.23;;;9.70;99.90;;;;;;5207298;28;20032;-74
2023/12/05 04:14:10;;;;;;;9.50;8.02;;;9.70;99.90;;;;;;5207150;28;20029;-75
2023/12/05 04:16:41;;;;;;;21.65;8.40;;;9.70;99.90;;;;;;5208475;28;20071;-72
2023/12/05 04:19:12;;;;;;;13.25;8.52;;;9.70;99.90;;;;;;5207473;28;20029;-72
2023/12/05 04:21:42;;;;;;;14.50;8.93;;;9.80;99.90;;;;;;5208379;28;20469;-72
2023/12/05 04:24:13;;;;;;;13.77;8.45;;;9.70;99.90;;;;;;5208303;28;20061;-71
2023/12/05 04:26:44;;;;;;;15.98;10.10;;;9.70;99.90;;;;;;5208296;28;20029;-73
2023/12/05 04:29:15;;;;;;;11.82;7.97;;;9.70;99.90;;;;;;5208273;28;20040;-72
2023/12/05 04:31:46;;;;;;;13.23;8.77;;;9.70;99.90;;;;;;5208168;28;20021;-81
2023/12/05 04:34:17;;;;;;;12.60;8.45;;;9.70;99.90;;;;;;5208132;28;20028;-82
2023/12/05 04:36:48;;;;;;;13.35;8.15;;;9.70;99.90;;;;;;5206925;28;20068;-80
2023/12/05 04:39:19;;;;;;;10.25;9.02;;;9.80;99.90;;;;;;5208136;28;20018;-72
2023/12/05 04:41:50;;;;;;;12.77;8.48;;;9.80;99.90;;;;;;5206734;28;20421;-72
2023/12/05 04:44:21;;;;;;;19.02;9.43;;;9.80;99.90;;;;;;5207787;28;20025;-73
2023/12/05 04:46:52;;;;;;;14.27;8.95;;;9.80;99.90;;;;;;5206680;28;20033;-73
2023/12/05 04:49:23;;;;;;;15.65;8.98;;;9.70;99.90;;;;;;5207788;28;20044;-72
2023/12/05 04:51:54;;;;;;;12.95;8.85;;;9.90;99.90;;;;;;5207471;28;20060;-72
2023/12/05 04:54:25;;;;;;;16.25;9.52;;;9.80;99.90;;;;;;5207340;28;20037;-79
2023/12/05 04:56:55;;;;;;;16.83;10.10;;;9.80;99.90;;;;;;5205689;28;20109;-74
2023/12/05 04:59:26;;;;;;;16.55;9.20;;;9.80;99.90;;;;;;5205044;28;20021;-72
2023/12/05 05:01:57;;;;;;;14.02;8.60;;;9.80;99.90;;;;;;5206361;28;20025;-72
2023/12/05 05:04:28;;;;;;;14.38;8.70;;;9.80;99.90;;;;;;5206433;28;20040;-72
2023/12/05 05:06:59;;;;;;;15.30;10.02;;;9.80;99.90;;;;;;5206346;28;20017;-71
2023/12/05 05:09:30;;;;;;;17.88;9.27;;;9.80;99.90;;;;;;5204964;28;20041;-76
2023/12/05 05:12:01;;;;;;;14.55;9.52;;;9.80;99.90;;;;;;5207030;28;20025;-72
2023/12/05 05:14:32;;;;;;;18.63;10.68;;;9.90;99.90;;;;;;5206912;28;20025;-77
2023/12/05 05:17:04;;;;;;;12.65;10.10;;;9.80;99.90;;;;;;5207303;28;20028;-72
2023/12/05 05:19:35;;;;;;;15.80;9.93;;;9.90;99.90;;;;;;5206007;28;20029;-72
2023/12/05 05:22:06;;;;;;;13.25;9.20;;;9.90;99.90;;;;;;5207179;28;20032;-73
2023/12/05 05:24:37;;;;;;;15.70;9.98;;;9.90;99.90;;;;;;5206014;28;20042;-82
2023/12/05 05:27:08;;;;;;;15.25;10.95;;;9.80;99.90;;;;;;5207172;28;20017;-78
2023/12/05 05:29:39;;;;;;;16.52;9.85;;;10.00;99.90;;;;;;5207151;28;20520;-74
2023/12/05 05:32:10;;;;;;;12.23;8.77;;;9.90;99.90;;;;;;5207435;28;20105;-72
2023/12/05 05:34:40;;;;;;;14.50;8.40;;;9.90;99.90;;;;;;5207154;28;20037;-73
2023/12/05 05:37:11;;;;;;;19.15;10.10;;;9.90;99.90;;;;;;5206834;28;20032;-80
2023/12/05 05:39:43;;;;;;;12.95;10.13;;;9.90;99.90;;;;;;5206768;28;20428;-78
2023/12/05 05:42:14;;;;;;;16.65;10.40;;;10.00;99.90;;;;;;5206787;28;20026;-72
2023/12/05 05:44:45;;;;;;;11.40;8.68;;;10.00;99.90;;;;;;5206850;28;20025;-72
2023/12/05 05:47:16;;;;;;;8.50;7.63;;;9.90;99.90;;;;;;5206945;28;20030;-71
2023/12/05 05:49:47;;;;;;;12.43;8.98;;;10.00;99.90;;;;;;5205817;28;20033;-72
2023/12/05 05:52:18;;;;;;;16.25;8.98;;;10.00;99.90;;;;;;5204800;28;20125;-75
2023/12/05 05:54:50;;;;;;;16.92;11.07;;;10.00;99.90;;;;;;5205243;28;20026;-72
2023/12/05 05:57:21;;;;;;;17.63;10.30;;;10.00;99.90;;;;;;5204322;28;20091;-76
2023/12/05 05:59:52;;;;;;;12.20;9.05;;;10.10;99.90;;;;;;5205138;28;20029;-78
2023/12/05 06:02:23;;;;;;;14.45;9.50;;;10.00;99.90;;;;;;5205279;28;20584;-72
2023/12/05 06:04:54;;;;;;;12.55;8.50;;;10.00;99.90;;;;;;5205110;28;20029;-72
2023/12/05 06:07:25;;;;;;;10.10;8.00;;;10.00;99.90;;;;;;5205424;28;20271;-71
2023/12/05 06:09:56;;;;;;;11.85;8.55;;;10.00;99.90;;;;;;5206308;28;20040;-74
2023/12/05 06:12:27;;;;;;;10.20;8.18;;;10.00;99.90;;;;;;5206157;28;20105;-72
2023/12/05 06:14:58;;;;;;;13.57;7.30;;;10.10;99.90;;;;;;5205014;28;20457;-72
2023/12/05 06:17:29;;;;;;;11.95;8.10;;;10.10;99.90;;;;;;5206196;28;20422;-72
2023/12/05 06:20:00;;;;;;;12.80;8.27;;;10.10;99.90;;;;;;5206054;28;20052;-72
2023/12/05 06:22:31;;;;;;;14.05;9.43;;;10.20;99.90;;;;;;5206147;28;20511;-72
2023/12/05 06:25:02;;;;;;;14.95;9.65;;;10.10;99.90;;;;;;5204968;28;20021;-82
2023/12/05 06:27:33;;;;;;;11.73;8.35;;;10.10;99.90;;;;;;5204068;28;20579;-73
2023/12/05 06:30:04;;;;;;;14.75;9.07;;;10.10;99.90;;;;;;5206005;28;20041;-72
2023/12/05 06:32:35;;;;;;;15.88;9.18;;;10.10;99.90;;;;;;5206053;28;20049;-82
2023/12/05 06:35:06;;;;;;;14.10;9.07;;;10.20;99.90;;;;;;5204737;28;20064;-81
2023/12/05 06:37:37;;;;;;;14.85;9.15;;;10.10;99.90;;;;;;5204724;28;20056;-81
2023/12/05 06:40:09;;;;;;;13.52;9.02;;;10.20;99.90;;;;;;5204740;28;20068;-74
2023/12/05 06:42:40;;;;;;;14.32;8.98;;;10.10;99.90;;;;;;5205795;28;20025;-72
2023/12/05 06:45:11;;;;;;;12.98;8.50;;;10.20;99.90;;;;;;5203926;28;20060;-72
2023/12/05 06:47:42;;;;;;;11.23;9.38;;;10.20;99.90;;;;;;5205482;28;20030;-73
2023/12/05 06:50:13;;;;;;;16.27;8.88;;;10.20;99.90;;;;;;5203139;28;20029;-72
2023/12/05 06:52:44;;;;;;;13.85;8.98;;;10.10;99.90;;;;;;5204400;28;20096;-72
2023/12/05 06:55:15;;;;;;;12.77;9.82;;;10.20;99.90;;;;;;5204401;28;20025;-72
2023/12/05 06:57:46;;;;;;;13.27;9.07;;;10.10;99.90;;;;;;5204119;28;20029;-73
2023/12/05 07:00:18;;;;;;;11.35;8.07;;;10.10;99.90;;;;;;5204361;28;20112;-71
2023/12/05 07:02:49;;;;;;;10.50;9.27;;;10.10;99.90;;;;;;5203236;28;20129;-72
2023/12/05 07:05:20;;;;;;;17.13;11.15;;;10.20;99.90;;;;;;5205602;28;20152;-72
2023/12/05 07:07:51;;;;;;;14.27;11.18;;;10.30;99.90;;;;;;5205611;28;20520;-73
2023/12/05 07:10:22;;;;;;;10.93;9.70;;;10.20;99.90;;;;;;5205450;28;20029;-72
2023/12/05 07:12:53;;;;;;;10.20;8.80;;;10.20;99.90;;;;;;5204323;28;20055;-75
2023/12/05 07:15:24;;;;;;;14.52;9.02;;;10.10;99.90;;;;;;5205583;28;20493;-71
2023/12/05 07:17:55;;;;;;;13.88;9.60;;;10.20;99.90;;;;;;5205695;28;20123;-72
2023/12/05 07:20:25;;;;;;;12.10;9.82;;;10.10;99.90;;;;;;5205161;28;20032;-72
2023/12/05 07:22:56;;;;;;;13.63;8.77;;;10.20;99.90;;;;;;5205057;28;20551;-72
2023/12/05 07:25:28;;;;;;;13.07;8.98;;;10.20;99.90;;;;;;5205322;28;20022;-81
2023/12/05 07:27:59;;;;;;;11.95;8.57;;;10.10;99.90;;;;;;5205214;28;20021;-71
2023/12/05 07:30:31;;;;;;;13.98;9.35;;;10.20;99.90;;;;;;5205262;28;20381;-72
2023/12/05 07:33:01;;;;;;;18.17;10.10;;;10.20;99.90;;;;;;5205103;28;20021;-74
2023/12/05 07:35:32;;;;;;;15.80;9.50;;;10.20;99.90;;;;;;5204184;28;20030;-76
2023/12/05 07:38:03;;;;;;;15.63;9.52;;;10.20;99.90;;;;;;5207003;28;20408;-76
2023/12/05 07:40:34;;;;;;;12.40;9.60;;;10.10;99.90;;;;;;5207625;28;20013;-72
2023/12/05 07:43:05;;;;;;;11.93;9.25;;;10.30;99.90;;;;;;5208706;28;20036;-79
2023/12/05 07:45:36;;;;;;;14.60;9.98;;;10.30;99.90;;;;;;5206914;28;20485;-72
2023/12/05 07:48:07;;;;;;;11.60;10.20;;;10.30;99.90;;;;;;5207846;28;20041;-72
2023/12/05 07:50:38;;;;;;;14.40;9.90;;;10.30;99.90;;;;;;5206308;28;20141;-72
2023/12/05 07:53:09;;;;;;;16.95;10.80;;;10.30;99.90;;;;;;5208099;28;20041;-72
2023/12/05 07:55:40;;;;;;;13.13;9.18;;;10.30;99.90;;;;;;5207788;28;20029;-72
2023/12/05 07:58:10;;;;;;;12.98;10.15;;;10.30;99.90;;;;;;5207922;28;20524;-72
2023/12/05 08:00:41;;;;;;;12.32;11.02;;;10.30;99.90;;;;;;5208417;28;20501;-72
2023/12/05 08:03:14;;;;;;;17.65;9.70;;;10.40;99.90;;;;;;5207302;28;20018;-80
2023/12/05 08:05:45;;;;;;;16.42;11.02;;;10.40;99.90;;;;;;5208941;28;20026;-73
2023/12/05 08:08:16;;;;;;;16.50;9.80;;;10.40;99.90;;;;;;5208752;28;20481;-72
2023/12/05 08:10:48;;;;;;;17.35;11.18;;;10.30;99.90;;;;;;5208444;28;20454;-72
2023/12/05 08:13:19;;;;;;;16.17;10.70;;;10.40;99.90;;;;;;5208650;28;20030;-72
2023/12/05 08:15:50;;;;;;;14.80;9.32;;;10.40;99.90;;;;;;5208533;28;20354;-72
2023/12/05 08:18:21;;;;;;;13.15;9.20;;;10.40;99.90;;;;;;5208512;28;20025;-72
2023/12/05 08:20:52;;;;;;;13.63;9.05;;;10.40;99.90;;;;;;5208047;28;20382;-72
2023/12/05 08:23:23;;;;;;;14.38;8.93;;;10.40;99.90;;;;;;5208434;28;20029;-78
2023/12/05 08:25:53;;;;;;;14.05;9.35;;;10.40;99.90;;;;;;5207150;28;20033;-72
2023/12/05 08:28:24;;;;;;;14.23;9.27;;;10.40;99.90;;;;;;5208161;28;20119;-74
2023/12/05 08:30:55;;;;;;;14.45;10.07;;;10.40;99.90;;;;;;5208248;28;20038;-72
2023/12/05 08:33:26;;;;;;;16.08;9.18;;;10.50;99.90;;;;;;5208177;28;20017;-78
2023/12/05 08:35:57;;;;;;;16.77;8.13;;;10.50;99.90;;;;;;5206780;28;20039;-78
2023/12/05 08:38:28;;;;;;;13.15;8.60;;;10.50;99.90;;;;;;5206136;28;20017;-72
2023/12/05 08:40:59;;;;;;;15.90;10.18;;;10.40;99.90;;;;;;5207141;28;20025;-73
2023/12/05 08:43:30;;;;;;;15.48;10.40;;;10.50;99.90;;;;;;5206599;28;20080;-72
2023/12/05 08:46:02;;;;;;;11.88;9.63;;;10.50;99.90;;;;;;5206838;28;20374;-78
2023/12/05 08:48:33;;;;;;;17.10;9.93;;;10.50;99.90;;;;;;5206267;28;20038;-73
2023/12/05 08:51:04;;;;;;;13.93;9.45;;;10.50;99.90;;;;;;5206205;28;20123;-77
2023/12/05 08:53:35;;;;;;;17.05;9.73;;;10.40;99.90;;;;;;5206537;28;20485;-73
2023/12/05 08:56:07;;;;;;;12.43;8.82;;;10.50;99.90;;;;;;5207363;28;20029;-81
2023/12/05 08:58:38;;;;;;;13.55;10.73;;;10.50;99.90;;;;;;5207820;28;20025;-72
2023/12/05 09:01:12;;;;;;;11.95;10.00;;;10.50;99.90;;;;;;5207634;28;20397;-73
2023/12/05 09:03:42;;;;;;;15.35;9.88;;;10.50;99.90;;;;;;5207728;28;20470;-72
2023/12/05 09:06:13;;;;;;;17.05;11.60;;;10.40;99.90;;;;;;5207010;28;20032;-72
2023/12/05 09:08:44;;;;;;;13.50;9.73;;;10.50;99.90;;;;;;5207392;28;20095;-72
2023/12/05 09:11:15;;;;;;;12.40;9.43;;;10.40;99.90;;;;;;5206397;28;20025;-72
2023/12/05 09:13:46;;;;;;;20.05;10.10;;;10.50;99.90;;;;;;5207409;28;20084;-72
2023/12/05 09:16:17;;;;;;;16.85;9.32;;;10.40;99.90;;;;;;5206248;28;20072;-72
2023/12/05 09:18:48;;;;;;;12.18;8.63;;;10.40;99.90;;;;;;5206095;28;20026;-72
2023/12/05 09:21:19;;;;;;;10.48;8.50;;;10.40;99.90;;;;;;5207164;28;20038;-72
2023/12/05 09:23:50;;;;;;;18.00;8.20;;;10.30;99.90;;;;;;5206397;28;20030;-72
2023/12/05 09:26:21;;;;;;;14.10;8.73;;;10.40;99.90;;;;;;5207109;28;20457;-72
2023/12/05 09:28:52;;;;;;;14.88;8.43;;;10.30;99.90;;;;;;5207041;28;20040;-72
2023/12/05 09:31:23;;;;;;;13.60;8.65;;;10.40;99.90;;;;;;5207020;28;20029;-79
2023/12/05 09:33:53;;;;;;;15.73;8.88;;;10.30;99.90;;;;;;5206273;28;20029;-73
2023/12/05 09:36:24;;;;;;;16.45;9.25;;;10.30;99.90;;;;;;5206378;28;20025;-79
2023/12/05 09:38:56;;;;;;;14.25;9.40;;;10.30;99.90;;;;;;5205706;28;20509;-72
2023/12/05 09:41:28;;;;;;;13.10;8.52;;;10.20;99.90;;;;;;5205535;28;20022;-73
2023/12/05 09:44:03;;;;;;;21.33;10.30;;;10.30;99.90;;;;;;5205803;28;20029;-72
2023/12/05 09:46:36;;;;;;;14.50;8.95;;;10.30;99.90;;;;;;5205661;28;20389;-72
2023/12/05 09:49:09;;;;;;;19.75;10.48;;;10.30;99.90;;;;;;5205396;28;20037;-72
2023/12/05 09:51:41;;;;;;;14.05;9.07;;;10.30;99.90;;;;;;5205678;28;20545;-72
2023/12/05 09:54:14;;;;;;;15.23;8.20;;;10.30;99.90;;;;;;5206888;28;20033;-77
2023/12/05 09:56:45;;;;;;;17.60;9.77;;;10.30;99.90;;;;;;5206541;28;20473;-74
2023/12/05 09:59:17;;;;;;;17.00;9.30;;;10.30;99.90;;;;;;5206395;28;20021;-72
2023/12/05 10:01:52;;;;;;;18.67;9.77;;;10.30;99.90;;;;;;5206263;28;20116;-72
2023/12/05 10:04:26;;;;;;;17.45;8.85;;;10.30;99.90;;;;;;5206582;28;20026;-72
2023/12/05 10:06:58;;;;;;;13.63;9.45;;;10.30;99.90;;;;;;5206374;28;20030;-72
2023/12/05 10:09:31;;;;;;;23.15;9.00;;;10.30;99.90;;;;;;5206289;28;20044;-73
2023/12/05 10:12:04;;;;;;;16.33;10.15;;;10.30;99.90;;;;;;5206034;28;20068;-72
2023/12/05 10:14:36;;;;;;;13.25;9.38;;;10.30;99.90;;;;;;5206111;28;20033;-72
2023/12/05 10:17:07;;;;;;;14.90;8.70;;;10.30;99.90;;;;;;5206257;28;20466;-81
2023/12/05 10:19:38;;;;;;;15.35;8.20;;;10.30;99.90;;;;;;5206214;28;20040;-72
2023/12/05 10:22:09;;;;;;;12.38;7.78;;;10.30;99.90;;;;;;5206328;28;20473;-72
2023/12/05 10:24:45;;;;;;;17.67;7.68;;;10.30;99.90;;;;;;5206113;28;20036;-72
2023/12/05 10:27:16;;;;;;;15.05;7.95;;;10.30;99.90;;;;;;5206654;28;20029;-78
2023/12/05 10:29:47;;;;;;;20.13;8.02;;;10.30;99.90;;;;;;5205633;28;20065;-81
2023/12/05 10:32:25;;;;;;;12.88;7.47;;;10.30;99.90;;;;;;5205662;28;20057;-74
2023/12/05 10:34:56;;;;;;;11.05;8.10;;;10.20;99.90;;;;;;5204958;28;20607;-72
2023/12/05 10:37:28;;;;;;;18.65;8.80;;;10.20;99.90;;;;;;5204577;28;20026;-72
2023/12/05 10:40:03;;;;;;;14.00;8.25;;;10.30;99.90;;;;;;5204375;28;20073;-81
2023/12/05 10:42:36;;;;;;;17.42;8.65;;;10.20;99.90;;;;;;5204828;28;20022;-75
2023/12/05 10:45:07;;;;;;;13.70;8.45;;;10.30;99.90;;;;;;5204595;28;20034;-72
2023/12/05 10:47:38;;;;;;;17.05;9.27;;;10.30;99.90;;;;;;5205079;28;20132;-82
2023/12/05 10:50:09;;;;;;;15.45;9.35;;;10.30;99.90;;;;;;5205511;28;20167;-73
2023/12/05 10:52:40;;;;;;;13.18;8.75;;;10.20;99.90;;;;;;5205569;28;20051;-72
2023/12/05 10:55:11;;;;;;;13.73;8.73;;;10.30;99.90;;;;;;5204495;28;20029;-80
2023/12/05 10:57:42;;;;;;;17.70;9.27;;;10.20;99.90;;;;;;5205604;28;20088;-72
2023/12/05 11:00:14;;;;;;;15.70;8.23;;;10.40;99.90;;;;;;5205468;28;20034;-73
2023/12/05 11:02:48;;;;;;;15.20;8.63;;;10.30;99.90;;;;;;5205641;28;20030;-72
2023/12/05 11:05:19;;;;;;;12.00;8.55;;;10.40;99.90;;;;;;5205605;28;20033;-74
2023/12/05 11:07:51;;;;;;;13.82;8.00;;;10.30;99.90;;;;;;5205372;28;20021;-79
2023/12/05 11:10:22;;;;;;;12.02;7.80;;;10.40;99.90;;;;;;5205279;28;20030;-83
2023/12/05 11:12:54;;;;;;;13.32;8.38;;;10.30;99.90;;;;;;5207232;28;20026;-73
2023/12/05 11:15:29;;;;;;;12.80;8.48;;;10.40;99.90;;;;;;5209679;28;20437;-73
2023/12/05 11:18:10;;;;;;;15.00;8.55;;;10.40;99.90;;;;;;5209754;28;20037;-72
2023/12/05 11:20:51;;;;;;;15.07;8.52;;;10.40;99.90;;;;;;5209535;28;20043;-72
2023/12/05 11:23:50;;;;;;;17.33;9.85;;;10.30;99.90;;;;;;5209462;28;20025;-74
2023/12/05 11:26:39;;;;;;;12.48;8.93;;;10.30;99.90;;;;;;5209098;28;20025;-72
2023/12/05 11:30:03;;;;;;;13.40;9.25;;;10.30;99.90;;;;;;5208262;28;20475;-74
2023/12/05 11:32:54;;;;;;;15.05;8.88;;;10.30;99.90;;;;;;5164901;28;20534;-73
2023/12/05 11:35:47;;;;;;;11.57;8.45;;;10.20;99.90;;;;;;5164911;28;20053;-72
2023/12/05 11:38:19;;;;;;;12.98;8.25;;;10.20;99.90;;;;;;5204852;28;20068;-72
2023/12/05 11:41:20;;;;;;;16.00;7.95;;;10.20;99.90;;;;;;5207874;28;20021;-72
2023/12/05 11:44:09;;;;;;;16.05;8.70;;;10.30;99.90;;;;;;5208826;28;20016;-72
2023/12/05 11:46:47;;;;;;;15.52;9.13;;;10.30;99.90;;;;;;5209125;28;20026;-73
2023/12/05 11:49:33;;;;;;;15.77;8.68;;;10.30;99.90;;;;;;5208900;28;20503;-73
2023/12/05 11:52:12;;;;;;;17.77;8.20;;;10.30;99.90;;;;;;5208782;28;20046;-72
2023/12/05 11:54:43;;;;;;;17.20;9.43;;;10.20;99.90;;;;;;5209045;28;20136;-80
2023/12/05 11:57:23;;;;;;;15.02;9.05;;;10.30;99.90;;;;;;5208921;28;20104;-73
2023/12/05 11:59:55;;;;;;;;;;;10.30;99.90;;;;;;5209223;28;20029;-72
2023/12/05 12:02:32;;;;;;;16.88;9.63;;;10.30;99.90;;;;;;5208860;28;20361;-72
2023/12/05 12:05:09;;;;;;;16.33;9.52;;;10.20;99.90;;;;;;5208663;28;20671;-73
2023/12/05 12:07:58;;;;;;;19.10;9.10;;;10.20;99.90;;;;;;5208605;28;20613;-72
2023/12/05 12:10:30;;;;;;;14.20;9.45;;;10.10;99.90;;;;;;5208687;28;20485;-74
2023/12/05 12:13:01;;;;;;;18.67;9.32;;;10.20;99.90;;;;;;5208730;28;20026;-72
2023/12/05 12:15:36;;;;;;;21.70;9.82;;;10.20;99.90;;;;;;5208733;28;20034;-73
2023/12/05 12:18:07;;;;;;;18.42;9.80;;;10.10;99.90;;;;;;5208726;28;20017;-72
2023/12/05 12:20:38;;;;;;;13.85;9.68;;;10.10;99.90;;;;;;5207667;28;20026;-73
2023/12/05 12:23:09;;;;;;;21.42;10.50;;;10.10;99.90;;;;;;5207927;28;20073;-72
2023/12/05 12:25:52;;;;;;;15.63;9.35;;;10.10;99.90;;;;;;5206455;28;20083;-72
2023/12/05 12:28:28;;;;;;;17.08;9.38;;;10.10;99.90;;;;;;5206889;28;20032;-72
2023/12/05 12:31:00;;;;;;;14.93;9.15;;;10.00;99.90;;;;;;5207078;28;20032;-72
2023/12/05 12:33:38;;;;;;;15.43;7.93;;;10.00;99.90;;;;;;5207014;28;20553;-73
2023/12/05 12:36:09;;;;;;;17.25;9.68;;;9.90;99.90;;;;;;5206733;28;20040;-72
2023/12/05 12:38:41;;;;;;;19.42;10.15;;;10.00;99.90;;;;;;5207121;28;20014;-72
2023/12/05 12:41:13;;;;;;;22.98;12.60;;;10.00;99.90;;;;;;5207926;28;20432;-81
2023/12/05 12:43:44;;;;;;;20.60;14.35;;;9.90;99.90;;;;;;5208132;28;20019;-72
2023/12/05 12:46:15;;;;;;;20.42;10.25;;;10.00;99.90;;;;;;5208350;28;20034;-73
2023/12/05 12:48:46;;;;;;;18.88;11.90;;;10.00;99.90;;;;;;5207993;28;20072;-71
2023/12/05 12:51:17;;;;;;;22.40;15.98;;;10.00;99.90;;;;;;5207704;28;20050;-82
2023/12/05 12:53:48;;;;;;;18.15;13.43;;;10.00;99.90;;;;;;5208113;28;20440;-72
2023/12/05 12:56:19;;;;;;;20.20;13.88;;;9.90;99.90;;;;;;5208169;28;20068;-73
2023/12/05 12:58:50;;;;;;;16.17;11.15;;;9.90;99.90;;;;;;5207895;28;20021;-72
2023/12/05 13:01:22;;;;;;;18.42;10.27;;;10.00;99.90;;;;;;5207681;28;20087;-80
2023/12/05 13:03:56;;;;;;;19.05;10.60;;;10.00;99.90;;;;;;5207758;28;20022;-75